Time;durP1;ratioP1;P1;durP2;ratioP2;P2;SDS_P1;SDS_P2;PMS_P1;PMS_P2;Temp;Humidity;BMP_temperature;BMP_pressure;BME280_temperature;BME280_humidity;BME280_pressure;Samples;Min_cycle;Max_cycle;Signal;HPM_P1;HPM_P2
2021/12/24 00:00:41;;;;;;;132.77;38.67;;;6.10;99.90;;;;;;5000617;28;20346;-65
2021/12/24 00:03:08;;;;;;;138.93;39.38;;;6.20;99.90;;;;;;4984822;28;20379;-65
2021/12/24 00:05:34;;;;;;;155.73;41.13;;;6.20;99.90;;;;;;4983500;28;20096;-65
2021/12/24 00:08:00;;;;;;;135.25;37.40;;;6.20;99.90;;;;;;5000801;28;20034;-65
2021/12/24 00:10:27;;;;;;;124.70;36.70;;;6.20;99.90;;;;;;4983795;28;20315;-65
2021/12/24 00:13:03;;;;;;;123.10;37.20;;;6.30;99.90;;;;;;4986209;28;20040;-65
2021/12/24 00:18:03;;;;;;;127.60;36.45;;;6.30;99.90;;;;;;4999392;28;20046;-65
2021/12/24 00:21:26;;;;;;;157.00;38.75;;;6.30;99.90;;;;;;4999550;28;20049;-65
2021/12/24 00:36:53;;;;;;;107.38;34.03;;;6.50;99.90;;;;;;5005257;28;20104;-65
2021/12/24 00:39:19;;;;;;;106.88;32.38;;;6.50;99.90;;;;;;4985256;28;20046;-65
2021/12/24 00:41:45;;;;;;;103.93;31.83;;;6.50;99.90;;;;;;5006566;28;20068;-66
2021/12/24 00:44:11;;;;;;;112.15;31.67;;;6.50;99.90;;;;;;5002156;28;20053;-66
2021/12/24 00:46:37;;;;;;;102.05;29.85;;;6.50;99.90;;;;;;5005338;28;20037;-65
2021/12/24 00:49:03;;;;;;;75.90;27.95;;;6.50;99.90;;;;;;5000371;28;20433;-66
2021/12/24 00:51:55;;;;;;;71.25;25.25;;;6.50;99.90;;;;;;5004417;28;20038;-65
2021/12/24 00:56:59;;;;;;;49.80;21.15;;;6.60;99.90;;;;;;5007511;28;20104;-65
2021/12/24 00:59:25;;;;;;;60.50;22.70;;;6.60;99.90;;;;;;5009560;28;20030;-64
2021/12/24 01:01:50;;;;;;;55.22;22.60;;;6.60;99.90;;;;;;5008428;28;20118;-65
2021/12/24 01:04:16;;;;;;;59.05;22.92;;;6.60;99.90;;;;;;4985203;28;20034;-65
2021/12/24 01:06:43;;;;;;;73.65;23.77;;;6.60;99.90;;;;;;5008545;28;20056;-65
2021/12/24 01:09:09;;;;;;;54.72;21.27;;;6.70;99.90;;;;;;4990746;28;20046;-65
2021/12/24 01:11:34;;;;;;;42.58;19.48;;;6.70;99.90;;;;;;5003460;28;20460;-65
2021/12/24 01:14:00;;;;;;;44.47;20.00;;;6.70;99.90;;;;;;5007557;28;20043;-65
2021/12/24 01:16:37;;;;;;;49.05;19.52;;;6.70;99.90;;;;;;5011404;28;20038;-65
2021/12/24 01:19:13;;;;;;;46.90;19.70;;;6.70;99.90;;;;;;4986028;28;20533;-65
2021/12/24 01:24:24;;;;;;;38.45;17.70;;;6.80;99.90;;;;;;5005779;28;20042;-65
2021/12/24 01:27:02;;;;;;;44.80;18.55;;;6.90;99.90;;;;;;5008488;28;20046;-65
2021/12/24 01:29:44;;;;;;;34.53;16.80;;;6.90;99.90;;;;;;5007314;28;20073;-65
2021/12/24 01:40:53;;;;;;;42.33;17.45;;;6.90;99.90;;;;;;4957111;28;20062;-66
2021/12/24 01:43:21;;;;;;;33.15;16.33;;;7.00;99.90;;;;;;4972986;28;20406;-65
2021/12/24 01:45:49;;;;;;;42.63;16.90;;;7.00;99.90;;;;;;4987110;28;20034;-65
2021/12/24 01:48:15;;;;;;;35.28;16.45;;;7.00;99.90;;;;;;4994439;28;20042;-65
2021/12/24 01:50:45;;;;;;;40.13;16.70;;;7.00;99.90;;;;;;4984246;28;20086;-65
2021/12/24 01:53:12;;;;;;;27.30;14.27;;;7.00;99.90;;;;;;4987174;28;20034;-65
2021/12/24 01:55:39;;;;;;;43.28;15.98;;;7.00;99.90;;;;;;4972281;28;20050;-65
2021/12/24 01:58:05;;;;;;;29.45;13.68;;;7.00;99.90;;;;;;4991577;28;20467;-66
2021/12/24 02:00:38;;;;;;;30.65;13.63;;;7.00;99.90;;;;;;4989233;28;20045;-66
2021/12/24 02:03:08;;;;;;;31.98;14.85;;;7.10;99.90;;;;;;4989135;28;20045;-66
2021/12/24 02:05:35;;;;;;;27.83;13.90;;;7.10;99.90;;;;;;4985418;28;20117;-66
2021/12/24 02:08:02;;;;;;;28.77;13.52;;;7.20;99.90;;;;;;4990544;28;20038;-66
2021/12/24 02:10:28;;;;;;;40.00;15.75;;;7.20;99.90;;;;;;4986045;28;20042;-65
2021/12/24 02:12:55;;;;;;;35.03;15.25;;;7.20;99.90;;;;;;4972197;28;20121;-65
2021/12/24 02:15:46;;;;;;;40.33;15.23;;;7.20;99.90;;;;;;4994179;28;20334;-65
2021/12/24 02:28:51;;;;;;;26.50;13.75;;;7.30;99.90;;;;;;4990763;28;20049;-65
2021/12/24 02:31:20;;;;;;;25.55;13.15;;;7.30;99.90;;;;;;4993377;28;20398;-65
2021/12/24 02:33:46;;;;;;;27.50;12.23;;;7.40;99.90;;;;;;4989591;28;20049;-65
2021/12/24 02:36:13;;;;;;;30.05;12.80;;;7.40;99.90;;;;;;4992039;28;20434;-65
2021/12/24 02:38:39;;;;;;;21.48;10.00;;;7.50;99.90;;;;;;4974109;28;20055;-65
2021/12/24 02:41:06;;;;;;;23.58;11.00;;;7.40;99.90;;;;;;5012778;28;20045;-65
2021/12/24 02:43:33;;;;;;;27.40;12.95;;;7.50;99.90;;;;;;5009245;28;20492;-65
2021/12/24 02:46:07;;;;;;;78.43;43.55;;;7.60;99.90;;;;;;5010492;28;20123;-66
2021/12/24 02:54:01;;;;;;;18.98;9.82;;;7.70;99.90;;;;;;5009634;28;20125;-66
2021/12/24 02:56:34;;;;;;;21.75;10.77;;;7.80;99.90;;;;;;5006782;28;20497;-65
2021/12/24 02:59:05;;;;;;;26.08;12.10;;;7.80;99.90;;;;;;5007637;28;20038;-65
2021/12/24 03:01:36;;;;;;;27.23;11.70;;;7.80;99.90;;;;;;5008674;28;20062;-65
2021/12/24 03:04:03;;;;;;;22.65;10.73;;;7.90;99.90;;;;;;5007350;28;20026;-65
2021/12/24 03:06:41;;;;;;;30.20;13.38;;;7.90;99.90;;;;;;5008666;28;20116;-65
2021/12/24 03:09:11;;;;;;;29.05;12.70;;;7.90;99.90;;;;;;5009001;28;20042;-65
2021/12/24 03:11:37;;;;;;;31.23;13.65;;;8.00;99.90;;;;;;4989826;28;20165;-66
2021/12/24 03:14:05;;;;;;;32.22;13.48;;;8.00;99.90;;;;;;5006298;28;20041;-65
2021/12/24 03:16:32;;;;;;;36.70;14.15;;;8.00;99.90;;;;;;5011299;28;20042;-65
2021/12/24 03:18:57;;;;;;;32.70;13.55;;;8.10;99.90;;;;;;5006806;28;20033;-65
2021/12/24 03:21:30;;;;;;;48.97;15.55;;;8.10;99.90;;;;;;4993580;28;20068;-65
2021/12/24 03:26:34;;;;;;;47.40;14.75;;;8.10;99.90;;;;;;5002956;28;20041;-65
2021/12/24 03:29:00;;;;;;;29.98;12.18;;;8.20;99.90;;;;;;5013621;28;20104;-65
2021/12/24 03:31:26;;;;;;;37.22;13.95;;;8.20;99.90;;;;;;5011914;28;20041;-65
2021/12/24 03:33:53;;;;;;;34.88;13.23;;;8.20;99.90;;;;;;4992025;28;20370;-65
2021/12/24 03:36:21;;;;;;;30.55;12.60;;;8.20;99.90;;;;;;4990874;28;20095;-65
2021/12/24 03:38:47;;;;;;;25.05;11.02;;;8.30;99.90;;;;;;5006301;28;20526;-65
2021/12/24 03:41:13;;;;;;;27.75;11.57;;;8.30;99.90;;;;;;4989872;28;20085;-65
2021/12/24 03:43:38;;;;;;;25.20;9.95;;;8.30;99.90;;;;;;5012726;28;20042;-65
2021/12/24 03:46:08;;;;;;;22.00;10.43;;;8.30;99.90;;;;;;4991927;28;20042;-65
2021/12/24 03:48:57;;;;;;;20.95;9.73;;;8.30;99.90;;;;;;4990196;28;20050;-65
2021/12/24 03:56:41;;;;;;;24.92;11.60;;;8.40;99.90;;;;;;4992751;28;20075;-65
2021/12/24 03:59:08;;;;;;;27.92;12.65;;;8.40;99.90;;;;;;4984797;28;20394;-65
2021/12/24 04:01:35;;;;;;;26.20;13.30;;;8.40;99.90;;;;;;5006981;28;20057;-65
2021/12/24 04:04:01;;;;;;;34.45;15.27;;;8.40;99.90;;;;;;5016227;28;20037;-65
2021/12/24 04:06:27;;;;;;;47.65;18.48;;;8.40;99.90;;;;;;5005089;28;20088;-65
2021/12/24 04:08:53;;;;;;;63.58;21.27;;;8.40;99.90;;;;;;4988309;28;20494;-65
2021/12/24 04:11:19;;;;;;;44.08;19.58;;;8.40;99.90;;;;;;5006148;28;20092;-65
2021/12/24 04:13:45;;;;;;;35.22;16.98;;;8.40;99.90;;;;;;4989217;28;20073;-65
2021/12/24 04:16:10;;;;;;;43.30;19.55;;;8.40;99.90;;;;;;4986543;28;20057;-65
2021/12/24 04:26:37;;;;;;;44.50;20.95;;;8.40;99.90;;;;;;4999650;28;20046;-65
2021/12/24 04:29:04;;;;;;;49.92;22.45;;;8.50;99.90;;;;;;5006862;28;20056;-65
2021/12/24 04:31:46;;;;;;;58.22;22.63;;;8.40;99.90;;;;;;4998585;28;20096;-66
2021/12/24 04:34:13;;;;;;;48.53;22.25;;;8.40;99.90;;;;;;5006165;28;20045;-65
2021/12/24 04:37:20;;;;;;;59.05;22.95;;;8.50;99.90;;;;;;5009638;28;20057;-65
2021/12/24 05:01:35;;;;;;;55.15;23.30;;;8.40;99.90;;;;;;4997379;28;20115;-65
2021/12/24 05:04:04;;;;;;;48.25;21.02;;;8.50;99.90;;;;;;5011402;28;20038;-65
2021/12/24 05:06:37;;;;;;;62.67;25.10;;;8.40;99.90;;;;;;5008269;28;20040;-65
2021/12/24 05:09:10;;;;;;;45.67;20.67;;;8.40;99.90;;;;;;4987973;28;20171;-65
2021/12/24 05:11:36;;;;;;;47.28;21.05;;;8.40;99.90;;;;;;5002824;28;20869;-65
2021/12/24 05:14:03;;;;;;;48.25;21.52;;;8.40;99.90;;;;;;5009081;28;20045;-65
2021/12/24 05:16:44;;;;;;;48.47;21.10;;;8.40;99.90;;;;;;5007237;28;20163;-65
2021/12/24 05:21:52;;;;;;;49.97;20.85;;;8.40;99.90;;;;;;5006523;28;20070;-65
2021/12/24 05:24:20;;;;;;;49.15;21.50;;;8.40;99.90;;;;;;4985440;28;20052;-65
2021/12/24 05:26:49;;;;;;;45.25;21.08;;;8.50;99.90;;;;;;4985981;28;20038;-65
2021/12/24 05:29:15;;;;;;;48.30;22.70;;;8.50;99.90;;;;;;4988870;28;20077;-65
2021/12/24 05:31:42;;;;;;;56.22;22.05;;;8.40;99.90;;;;;;4987307;28;20487;-65
2021/12/24 05:34:08;;;;;;;49.97;22.00;;;8.40;99.90;;;;;;4999173;28;20042;-65
2021/12/24 05:36:34;;;;;;;66.40;24.10;;;8.50;99.90;;;;;;4985433;28;20046;-65
2021/12/24 05:39:01;;;;;;;59.35;23.52;;;8.50;99.90;;;;;;4988619;28;20573;-65
2021/12/24 05:41:27;;;;;;;54.38;22.63;;;8.50;99.90;;;;;;5007798;28;20104;-65
2021/12/24 05:43:52;;;;;;;44.15;21.02;;;8.40;99.90;;;;;;5010367;28;20034;-65
2021/12/24 05:46:19;;;;;;;45.80;20.45;;;8.50;99.90;;;;;;5014594;28;20026;-65
2021/12/24 05:48:45;;;;;;;45.53;21.05;;;8.50;99.90;;;;;;4992390;28;20429;-65
2021/12/24 05:51:10;;;;;;;40.33;18.92;;;8.50;99.90;;;;;;5010569;28;20064;-65
2021/12/24 05:53:37;;;;;;;50.33;19.90;;;8.50;99.90;;;;;;5009817;28;20042;-65
2021/12/24 05:56:03;;;;;;;49.55;19.73;;;8.50;99.90;;;;;;5009994;28;20096;-65
2021/12/24 05:58:29;;;;;;;42.20;18.67;;;8.50;99.90;;;;;;5009249;28;20030;-65
2021/12/24 06:00:56;;;;;;;42.60;18.08;;;8.40;99.90;;;;;;5010601;28;20127;-65
2021/12/24 06:03:21;;;;;;;40.47;16.38;;;8.50;99.90;;;;;;5009683;28;20030;-65
2021/12/24 06:05:48;;;;;;;32.83;14.80;;;8.40;99.90;;;;;;5009509;28;20040;-65
2021/12/24 06:08:14;;;;;;;36.97;14.27;;;8.40;99.90;;;;;;5013630;28;20045;-66
2021/12/24 06:10:41;;;;;;;39.05;13.75;;;8.50;99.90;;;;;;4992979;28;20401;-65
2021/12/24 06:13:07;;;;;;;31.77;13.98;;;8.40;99.90;;;;;;5008735;28;20045;-65
2021/12/24 06:15:41;;;;;;;28.08;13.15;;;8.50;99.90;;;;;;5009191;28;20121;-65
2021/12/24 06:18:12;;;;;;;36.85;13.05;;;8.40;99.90;;;;;;4990920;28;20104;-65
2021/12/24 06:20:40;;;;;;;30.33;13.52;;;8.50;99.90;;;;;;5004049;28;20442;-66
2021/12/24 06:23:08;;;;;;;39.15;13.77;;;8.50;99.90;;;;;;5007781;28;20520;-65
2021/12/24 06:25:34;;;;;;;37.67;13.40;;;8.50;99.90;;;;;;4989947;28;20046;-65
2021/12/24 06:28:00;;;;;;;39.10;14.30;;;8.40;99.90;;;;;;5012102;28;20029;-66
2021/12/24 06:30:29;;;;;;;39.55;13.25;;;8.40;99.90;;;;;;5009758;28;20285;-65
2021/12/24 06:32:56;;;;;;;39.30;14.25;;;8.50;99.90;;;;;;5006898;28;20042;-65
2021/12/24 06:35:23;;;;;;;35.35;13.45;;;8.50;99.90;;;;;;4992944;28;20407;-65
2021/12/24 06:37:50;;;;;;;42.63;12.73;;;8.40;99.90;;;;;;5011956;28;20041;-66
2021/12/24 06:40:16;;;;;;;30.38;11.43;;;8.40;99.90;;;;;;5003212;28;20064;-65
2021/12/24 06:42:41;;;;;;;34.97;12.80;;;8.40;99.90;;;;;;5003884;28;20402;-65
2021/12/24 06:45:07;;;;;;;32.03;11.65;;;8.40;99.90;;;;;;5007062;28;20042;-65
2021/12/24 06:47:33;;;;;;;33.50;10.45;;;8.40;99.90;;;;;;5001264;28;20057;-65
2021/12/24 06:49:59;;;;;;;33.53;10.32;;;8.50;99.90;;;;;;5007360;28;20057;-65
2021/12/24 06:52:25;;;;;;;27.80;9.73;;;8.40;99.90;;;;;;5001645;28;20049;-65
2021/12/24 06:54:50;;;;;;;29.65;9.85;;;8.40;99.90;;;;;;4987729;28;20034;-65
2021/12/24 06:57:18;;;;;;;26.80;8.88;;;8.40;99.90;;;;;;4990017;28;20033;-65
2021/12/24 06:59:44;;;;;;;35.03;9.90;;;8.40;99.90;;;;;;4984966;28;20065;-65
2021/12/24 07:02:10;;;;;;;30.05;8.73;;;8.40;99.90;;;;;;5005249;28;20061;-65
2021/12/24 07:04:36;;;;;;;27.70;8.00;;;8.40;99.90;;;;;;4999053;28;20509;-65
2021/12/24 07:07:02;;;;;;;29.02;7.85;;;8.40;99.90;;;;;;5002745;28;20030;-65
2021/12/24 07:09:27;;;;;;;34.20;8.45;;;8.40;99.90;;;;;;5005496;28;20037;-66
2021/12/24 07:11:53;;;;;;;33.72;9.50;;;8.40;99.90;;;;;;5001854;28;20476;-66
2021/12/24 07:14:19;;;;;;;27.83;8.20;;;8.40;99.90;;;;;;5007787;28;20042;-66
2021/12/24 07:16:44;;;;;;;27.65;8.13;;;8.40;99.90;;;;;;4987887;28;20045;-66
2021/12/24 07:19:10;;;;;;;26.70;8.43;;;8.30;99.90;;;;;;5003423;28;20100;-65
2021/12/24 07:21:36;;;;;;;24.73;7.15;;;8.40;99.90;;;;;;5004885;28;20045;-66
2021/12/24 07:24:03;;;;;;;21.73;7.30;;;8.40;99.90;;;;;;4982227;28;20034;-65
2021/12/24 07:26:28;;;;;;;20.23;8.43;;;8.30;99.90;;;;;;5004831;28;20085;-65
2021/12/24 07:28:54;;;;;;;26.65;7.18;;;8.30;99.90;;;;;;4992243;28;20049;-66
2021/12/24 07:31:20;;;;;;;21.30;7.07;;;8.30;99.90;;;;;;5002035;28;20053;-66
2021/12/24 07:33:46;;;;;;;31.42;8.32;;;8.30;99.90;;;;;;4989363;28;20121;-65
2021/12/24 07:36:13;;;;;;;23.63;7.38;;;8.30;99.90;;;;;;5001313;28;20482;-65
2021/12/24 07:38:40;;;;;;;22.33;7.50;;;8.30;99.90;;;;;;4999816;28;20138;-66
2021/12/24 07:41:05;;;;;;;28.52;7.72;;;8.30;99.90;;;;;;4970875;28;20050;-65
2021/12/24 07:43:31;;;;;;;23.05;7.72;;;8.30;99.90;;;;;;5003605;28;20041;-65
2021/12/24 07:45:57;;;;;;;24.33;7.75;;;8.30;99.90;;;;;;5002070;28;20053;-66
2021/12/24 07:48:28;;;;;;;21.15;6.13;;;8.30;99.90;;;;;;5004650;28;20063;-66
2021/12/24 07:53:22;;;;;;;22.50;6.07;;;8.30;99.90;;;;;;5002717;28;20517;-65
2021/12/24 07:55:47;;;;;;;22.65;6.07;;;8.30;99.90;;;;;;5002606;28;20033;-66
2021/12/24 07:58:14;;;;;;;16.95;6.22;;;8.20;99.90;;;;;;4989844;28;20050;-66
2021/12/24 08:00:41;;;;;;;23.58;5.68;;;8.20;99.90;;;;;;5003094;28;20044;-65
2021/12/24 08:03:07;;;;;;;25.58;5.55;;;8.20;99.90;;;;;;4985731;28;20056;-65
2021/12/24 08:05:35;;;;;;;26.08;6.70;;;8.20;99.90;;;;;;5007152;28;20124;-65
2021/12/24 08:08:02;;;;;;;20.35;5.63;;;8.20;99.90;;;;;;5006209;28;20548;-65
2021/12/24 08:10:30;;;;;;;20.63;5.63;;;8.20;99.90;;;;;;5004238;28;20511;-66
2021/12/24 08:12:56;;;;;;;22.58;6.10;;;8.20;99.90;;;;;;5005277;28;20046;-66
2021/12/24 08:15:22;;;;;;;22.77;5.03;;;8.20;99.90;;;;;;5005668;28;20089;-65
2021/12/24 08:17:48;;;;;;;25.95;5.50;;;8.20;99.90;;;;;;5003543;28;20049;-65
2021/12/24 08:20:15;;;;;;;19.10;5.10;;;8.20;99.90;;;;;;4984358;28;20084;-65
2021/12/24 08:22:42;;;;;;;24.63;5.72;;;8.20;99.90;;;;;;4984428;28;20171;-66
2021/12/24 08:25:09;;;;;;;17.20;5.07;;;8.20;99.90;;;;;;4986998;28;20034;-66
2021/12/24 08:27:38;;;;;;;24.33;4.90;;;8.20;99.90;;;;;;5001020;28;20046;-66
2021/12/24 08:30:05;;;;;;;23.65;5.30;;;8.30;99.90;;;;;;4990072;28;20054;-66
2021/12/24 08:32:31;;;;;;;23.60;5.40;;;8.30;99.90;;;;;;5002985;28;20033;-66
2021/12/24 08:34:57;;;;;;;25.98;5.47;;;8.30;99.90;;;;;;4983582;28;20528;-66
2021/12/24 08:37:26;;;;;;;26.38;5.90;;;8.30;99.90;;;;;;4999519;28;20033;-65
2021/12/24 08:39:51;;;;;;;31.20;6.53;;;8.30;99.90;;;;;;5007790;28;20125;-65
2021/12/24 08:42:18;;;;;;;22.00;6.22;;;8.30;99.90;;;;;;4986501;28;20117;-65
2021/12/24 08:44:44;;;;;;;32.10;6.00;;;8.30;99.90;;;;;;5005104;28;20108;-65
2021/12/24 08:47:09;;;;;;;20.75;5.03;;;8.30;99.90;;;;;;4990810;28;20042;-65
2021/12/24 08:49:35;;;;;;;27.05;5.68;;;8.40;99.90;;;;;;5004624;28;20394;-66
2021/12/24 08:52:01;;;;;;;27.92;5.45;;;8.40;99.90;;;;;;5001332;28;20581;-66
2021/12/24 08:54:27;;;;;;;21.92;4.82;;;8.40;99.90;;;;;;5007436;28;20041;-66
2021/12/24 08:56:54;;;;;;;19.42;4.68;;;8.40;99.90;;;;;;5002001;28;20533;-66
2021/12/24 08:59:20;;;;;;;29.52;4.90;;;8.40;99.90;;;;;;5001167;28;20045;-66
2021/12/24 09:01:46;;;;;;;33.88;5.53;;;8.40;99.90;;;;;;5000667;28;20386;-66
2021/12/24 09:04:13;;;;;;;20.05;4.60;;;8.40;99.90;;;;;;4986849;28;20049;-66
2021/12/24 09:06:40;;;;;;;19.90;4.10;;;8.40;99.90;;;;;;5001543;28;20052;-66
2021/12/24 09:09:07;;;;;;;21.10;4.50;;;8.40;99.90;;;;;;4988093;28;20054;-66
2021/12/24 09:11:38;;;;;;;20.63;4.60;;;8.40;99.90;;;;;;5006079;28;20484;-66
2021/12/24 09:14:04;;;;;;;22.85;4.28;;;8.40;99.90;;;;;;5000500;28;20050;-66
2021/12/24 09:16:32;;;;;;;32.35;5.80;;;8.40;99.90;;;;;;5003542;28;20045;-66
2021/12/24 09:19:06;;;;;;;18.73;4.20;;;8.40;99.90;;;;;;5011423;28;20038;-66
2021/12/24 09:21:33;;;;;;;24.08;4.85;;;8.30;99.90;;;;;;5005161;28;20607;-66
2021/12/24 09:24:00;;;;;;;26.05;4.32;;;8.40;99.90;;;;;;5005587;28;20112;-66
2021/12/24 09:26:32;;;;;;;20.73;4.70;;;8.40;99.90;;;;;;4985565;28;20043;-66
2021/12/24 09:28:59;;;;;;;24.83;4.53;;;8.40;99.90;;;;;;5006242;28;20482;-66
2021/12/24 09:31:26;;;;;;;26.05;5.30;;;8.40;99.90;;;;;;5001358;28;20156;-67
2021/12/24 09:33:52;;;;;;;30.05;5.57;;;8.40;99.90;;;;;;4989866;28;20105;-66
2021/12/24 09:36:24;;;;;;;25.58;5.13;;;8.40;99.90;;;;;;4989678;28;20119;-66
2021/12/24 09:38:51;;;;;;;18.77;5.13;;;8.40;99.90;;;;;;5004987;28;20509;-66
2021/12/24 09:41:17;;;;;;;23.90;5.85;;;8.40;99.90;;;;;;5008876;28;20029;-66
2021/12/24 09:43:42;;;;;;;27.50;5.10;;;8.40;99.90;;;;;;5008063;28;20041;-66
2021/12/24 09:46:08;;;;;;;22.38;4.90;;;8.50;99.90;;;;;;5007720;28;20489;-67
2021/12/24 09:48:34;;;;;;;21.17;5.55;;;8.50;99.90;;;;;;5002881;28;20052;-66
2021/12/24 09:51:00;;;;;;;23.73;5.40;;;8.50;99.90;;;;;;4989841;28;20050;-66
2021/12/24 09:53:25;;;;;;;25.10;5.90;;;8.60;99.90;;;;;;5005221;28;20497;-66
2021/12/24 09:55:51;;;;;;;24.55;5.60;;;8.60;99.90;;;;;;5011707;28;20034;-66
2021/12/24 09:58:17;;;;;;;22.15;5.80;;;8.60;99.90;;;;;;5010936;28;20029;-66
2021/12/24 10:00:43;;;;;;;21.52;5.05;;;8.70;99.90;;;;;;5008365;28;20482;-66
2021/12/24 10:03:09;;;;;;;25.95;5.07;;;8.70;99.90;;;;;;5008729;28;20455;-66
2021/12/24 10:05:40;;;;;;;24.92;4.97;;;8.70;99.90;;;;;;4993800;28;20153;-66
2021/12/24 10:08:19;;;;;;;29.17;5.22;;;8.70;99.90;;;;;;5004937;28;20065;-66
2021/12/24 10:10:47;;;;;;;23.38;5.13;;;8.80;99.90;;;;;;5006897;28;20046;-66
2021/12/24 10:13:33;;;;;;;19.48;4.60;;;8.70;99.90;;;;;;4989835;28;20053;-66
2021/12/24 10:16:04;;;;;;;16.00;4.63;;;8.70;99.90;;;;;;5018211;28;20037;-66
2021/12/24 10:18:39;;;;;;;28.42;6.00;;;8.70;99.90;;;;;;5006073;28;20046;-67
2021/12/24 10:21:08;;;;;;;28.67;6.13;;;8.70;99.90;;;;;;4990008;28;20516;-66
2021/12/24 10:24:00;;;;;;;27.13;5.03;;;8.70;99.90;;;;;;5007007;28;20042;-66
2021/12/24 10:26:34;;;;;;;25.60;5.65;;;8.60;99.90;;;;;;5001955;28;20505;-66
2021/12/24 10:29:07;;;;;;;;;;;8.60;99.90;;;;;;5008380;28;20049;-66
2021/12/24 10:31:47;;;;;;;24.75;5.18;;;8.50;99.90;;;;;;5002837;28;19923;-67
2021/12/24 10:34:21;;;;;;;25.52;6.28;;;8.50;99.90;;;;;;5008405;28;20529;-67
2021/12/24 10:36:49;;;;;;;24.70;6.00;;;8.60;99.90;;;;;;5011497;28;20182;-66
2021/12/24 10:39:26;;;;;;;23.10;6.30;;;8.60;99.90;;;;;;5004539;28;20050;-66
2021/12/24 10:41:53;;;;;;;25.67;6.25;;;8.60;99.90;;;;;;4973950;28;20037;-66
2021/12/24 10:44:28;;;;;;;18.83;5.13;;;8.60;99.90;;;;;;5008708;28;20084;-66
2021/12/24 10:47:02;;;;;;;;;;;8.60;99.90;;;;;;5007382;28;20038;-66
2021/12/24 10:49:53;;;;;;;24.40;5.90;;;8.50;99.90;;;;;;4999199;28;19918;-66
2021/12/24 10:55:02;;;;;;;22.17;5.75;;;8.60;99.90;;;;;;5007486;28;20058;-66
2021/12/24 10:57:31;;;;;;;19.75;6.75;;;8.60;99.90;;;;;;5003507;28;20040;-67
2021/12/24 11:00:00;;;;;;;23.17;6.10;;;8.50;99.90;;;;;;4988417;28;20058;-66
2021/12/24 11:02:34;;;;;;;22.40;6.43;;;8.60;99.90;;;;;;5007833;28;20049;-66
2021/12/24 11:05:01;;;;;;;30.23;5.38;;;8.60;99.90;;;;;;5004924;28;20037;-66
2021/12/24 11:07:42;;;;;;;14.10;4.22;;;8.60;99.90;;;;;;5009638;28;20037;-66
2021/12/24 11:10:14;;;;;;;20.90;4.22;;;8.50;99.90;;;;;;5007632;28;20414;-66
2021/12/24 11:12:44;;;;;;;19.08;4.25;;;8.50;99.90;;;;;;5011652;28;20124;-66
2021/12/24 11:15:22;;;;;;;21.17;4.20;;;8.50;99.90;;;;;;5009125;28;20096;-66
2021/12/24 11:17:49;;;;;;;16.58;3.75;;;8.40;99.90;;;;;;4988538;28;20100;-67
2021/12/24 11:20:15;;;;;;;15.23;3.53;;;8.50;99.90;;;;;;4974257;28;20243;-66
2021/12/24 11:23:00;;;;;;;16.75;3.22;;;8.40;99.90;;;;;;4987802;28;20465;-66
2021/12/24 11:25:32;;;;;;;18.77;3.33;;;8.40;99.90;;;;;;5001417;28;20048;-67
2021/12/24 11:27:58;;;;;;;12.45;3.55;;;8.50;99.90;;;;;;5012662;28;20034;-67
2021/12/24 11:30:26;;;;;;;7.03;2.45;;;8.40;99.90;;;;;;4989834;28;20410;-67
2021/12/24 11:32:52;;;;;;;8.75;2.10;;;8.40;99.90;;;;;;5006396;28;20041;-67
2021/12/24 11:35:18;;;;;;;3.65;1.60;;;8.30;99.90;;;;;;5006448;28;20431;-66
2021/12/24 11:37:46;;;;;;;2.45;1.15;;;8.20;99.90;;;;;;5012531;28;20030;-66
2021/12/24 11:40:19;;;;;;;1.02;0.52;;;8.00;99.90;;;;;;5006496;28;20057;-67
2021/12/24 11:42:51;;;;;;;1.25;0.80;;;7.90;99.90;;;;;;5004844;28;20065;-67
2021/12/24 11:45:18;;;;;;;0.65;0.43;;;7.60;99.90;;;;;;5010045;28;20030;-67
2021/12/24 11:47:44;;;;;;;1.17;0.60;;;7.40;99.90;;;;;;5008370;28;20048;-65
2021/12/24 11:50:10;;;;;;;1.65;0.85;;;7.20;99.90;;;;;;5007216;28;20509;-65
2021/12/24 11:52:36;;;;;;;1.00;0.65;;;7.10;99.90;;;;;;5006380;28;20128;-65
2021/12/24 11:55:02;;;;;;;1.08;0.70;;;7.00;99.90;;;;;;4988063;28;20050;-65
2021/12/24 11:57:28;;;;;;;1.65;0.70;;;7.00;99.90;;;;;;5007504;28;20258;-65
2021/12/24 11:59:54;;;;;;;0.82;0.65;;;6.90;99.90;;;;;;5007793;28;20038;-65
2021/12/24 12:02:41;;;;;;;0.90;0.80;;;6.90;99.90;;;;;;5007679;28;20034;-67
2021/12/24 12:05:28;;;;;;;2.17;0.93;;;6.80;99.90;;;;;;4983307;28;20054;-65
2021/12/24 12:08:25;;;;;;;1.38;0.80;;;6.80;99.90;;;;;;5005937;28;20026;-65
2021/12/24 12:10:55;;;;;;;1.10;0.80;;;6.80;99.90;;;;;;4987878;28;20100;-65
2021/12/24 12:14:01;;;;;;;2.17;0.90;;;6.70;99.90;;;;;;4993457;28;20195;-65
2021/12/24 12:16:39;;;;;;;1.20;1.00;;;6.70;99.90;;;;;;4989824;28;20096;-66
2021/12/24 12:19:11;;;;;;;1.95;1.42;;;6.70;99.90;;;;;;4986595;28;20060;-66
2021/12/24 12:21:40;;;;;;;1.70;1.33;;;6.70;99.90;;;;;;4982582;28;20545;-66
2021/12/24 12:26:49;;;;;;;1.48;1.38;;;6.70;99.90;;;;;;5006748;28;20163;-66
2021/12/24 12:29:22;;;;;;;1.33;1.23;;;6.70;99.90;;;;;;5007551;28;20353;-66
2021/12/24 12:31:52;;;;;;;1.45;1.30;;;6.70;99.90;;;;;;4987898;28;20121;-66
2021/12/24 12:34:40;;;;;;;2.55;1.30;;;6.80;99.90;;;;;;5007080;28;20040;-66
2021/12/24 12:37:22;;;;;;;2.15;1.42;;;6.90;99.90;;;;;;4984483;28;20058;-66
2021/12/24 12:39:58;;;;;;;1.63;1.27;;;6.90;99.90;;;;;;5006313;28;20069;-66
2021/12/24 12:42:53;;;;;;;1.55;1.23;;;6.90;99.90;;;;;;5006345;28;20081;-66
2021/12/24 12:45:32;;;;;;;1.80;1.35;;;6.90;99.90;;;;;;5012874;28;20054;-66
2021/12/24 12:48:01;;;;;;;1.10;0.90;;;6.90;99.90;;;;;;4984107;28;20461;-66
2021/12/24 12:50:29;;;;;;;2.00;1.20;;;6.80;99.90;;;;;;4988680;28;20160;-66
2021/12/24 12:53:22;;;;;;;1.70;1.42;;;6.80;99.90;;;;;;4991502;28;20383;-66
2021/12/24 12:56:08;;;;;;;2.17;1.40;;;6.70;99.90;;;;;;4992864;28;20054;-66
2021/12/24 12:58:34;;;;;;;2.90;1.63;;;6.70;99.90;;;;;;5006618;28;20038;-66
2021/12/24 13:01:06;;;;;;;2.78;2.20;;;6.60;99.90;;;;;;5008840;28;20034;-66
2021/12/24 13:03:57;;;;;;;2.67;1.90;;;6.70;99.90;;;;;;4987273;28;20049;-66
2021/12/24 13:06:42;;;;;;;2.50;2.17;;;6.60;99.90;;;;;;5015170;28;20033;-66
2021/12/24 13:09:12;;;;;;;;;;;6.70;99.90;;;;;;5003387;28;20041;-66
2021/12/24 13:11:40;;;;;;;1.85;1.67;;;6.60;99.90;;;;;;4987229;28;19940;-66
2021/12/24 13:14:06;;;;;;;2.08;1.38;;;6.60;99.90;;;;;;4992838;28;20093;-66
2021/12/24 13:16:42;;;;;;;2.65;1.50;;;6.60;99.90;;;;;;5012318;28;20029;-66
2021/12/24 13:24:50;;;;;;;1.73;0.90;;;6.60;99.90;;;;;;4986551;28;20505;-67
2021/12/24 13:27:16;;;;;;;1.85;1.08;;;6.60;99.90;;;;;;5009079;28;20034;-67
2021/12/24 13:29:42;;;;;;;1.00;0.80;;;6.50;99.90;;;;;;4988200;28;20557;-67
2021/12/24 13:32:08;;;;;;;2.67;1.13;;;6.50;99.90;;;;;;4994219;28;20129;-67
2021/12/24 13:34:36;;;;;;;1.23;0.80;;;6.50;99.90;;;;;;5008064;28;20042;-67
2021/12/24 13:37:09;;;;;;;1.75;0.80;;;6.50;99.90;;;;;;4989351;28;20054;-67
2021/12/24 13:39:35;;;;;;;0.95;0.80;;;6.50;99.90;;;;;;4993087;28;20720;-67
2021/12/24 13:42:07;;;;;;;1.40;0.80;;;6.50;99.90;;;;;;5011080;28;20125;-67
2021/12/24 13:44:34;;;;;;;1.15;0.85;;;6.50;99.90;;;;;;5006538;28;20085;-67
2021/12/24 13:47:21;;;;;;;1.25;0.95;;;6.50;99.90;;;;;;4989904;28;20104;-67
2021/12/24 13:55:31;;;;;;;1.52;1.17;;;6.40;99.90;;;;;;5008586;28;20488;-67
2021/12/24 13:58:03;;;;;;;5.80;1.40;;;6.50;99.90;;;;;;5008237;28;20041;-67
2021/12/24 14:00:31;;;;;;;1.85;1.20;;;6.50;99.90;;;;;;5007878;28;20189;-67
2021/12/24 14:03:00;;;;;;;3.45;1.83;;;6.40;99.90;;;;;;5013006;28;20038;-66
2021/12/24 14:05:27;;;;;;;2.60;1.70;;;6.40;99.90;;;;;;5006840;28;20161;-66
2021/12/24 14:08:23;;;;;;;2.92;1.40;;;6.50;99.90;;;;;;5005481;28;20457;-67
2021/12/24 14:11:03;;;;;;;1.98;1.27;;;6.40;99.90;;;;;;4959117;28;20506;-67
2021/12/24 14:13:33;;;;;;;1.88;1.27;;;6.50;99.90;;;;;;5009100;28;20048;-66
2021/12/24 14:16:37;;;;;;;2.38;1.33;;;6.50;99.90;;;;;;5002329;28;20083;-66
2021/12/24 14:18:55;;;;;;;1.20;1.00;;;6.50;99.90;;;;;;4991318;28;20104;-66
2021/12/24 14:24:15;;;;;;;1.70;1.45;;;6.50;99.90;;;;;;5014595;28;20048;-66
2021/12/24 14:27:02;;;;;;;1.55;1.10;;;6.50;99.90;;;;;;5006196;28;20038;-67
2021/12/24 14:29:36;;;;;;;1.70;1.30;;;6.50;99.90;;;;;;5003481;28;20042;-66
2021/12/24 14:32:04;;;;;;;1.83;1.52;;;6.50;99.90;;;;;;5004924;28;20041;-66
2021/12/24 14:34:42;;;;;;;2.40;1.70;;;6.50;99.90;;;;;;4983934;28;20460;-67
2021/12/24 14:37:32;;;;;;;2.17;1.73;;;6.50;99.90;;;;;;5006419;28;20612;-64
2021/12/24 14:40:08;;;;;;;2.78;1.55;;;6.50;99.90;;;;;;5004675;28;20084;-64
2021/12/24 14:42:36;;;;;;;2.78;1.60;;;6.50;99.90;;;;;;5006451;28;20105;-64
2021/12/24 14:45:24;;;;;;;2.05;1.52;;;6.50;99.90;;;;;;5002107;28;20034;-64
2021/12/24 14:48:03;;;;;;;2.70;2.08;;;6.40;99.90;;;;;;5004367;28;20451;-64